createdAt,value
2022-10-07T00:04:29.954Z,101628.20
2022-10-07T00:09:33.553Z,101622.60
2022-10-07T00:14:37.098Z,101615.20
2022-10-07T00:19:40.679Z,101609.80
2022-10-07T00:24:44.843Z,101614.20
2022-10-07T00:29:48.327Z,101616.40
2022-10-07T00:34:51.744Z,101618.80
2022-10-07T00:39:55.050Z,101613.80
2022-10-07T00:44:58.458Z,101603.40
2022-10-07T00:50:16.720Z,101596.40
2022-10-07T00:55:25.096Z,101601.40
2022-10-07T01:00:28.890Z,101602.80
2022-10-07T01:05:32.492Z,101597.20
2022-10-07T01:10:57.311Z,101601.40
2022-10-07T01:16:23.622Z,101597.60
2022-10-07T01:22:38.554Z,101593.60
2022-10-07T01:27:51.746Z,101596.20
2022-10-07T01:33:04.674Z,101588.40
2022-10-07T01:38:12.343Z,101596.80
2022-10-07T01:43:20.917Z,101587.00
2022-10-07T01:48:24.517Z,101591.20
2022-10-07T01:53:56.686Z,101589.60
2022-10-07T01:59:25.798Z,101580.00
2022-10-07T02:04:50.001Z,101570.40
2022-10-07T02:10:09.595Z,101568.80
2022-10-07T02:15:47.650Z,101573.40
2022-10-07T02:20:54.436Z,101570.00
2022-10-07T02:25:59.183Z,101569.60
2022-10-07T02:31:06.050Z,101574.40
2022-10-07T02:36:18.250Z,101574.80
2022-10-07T02:41:51.999Z,101575.40
2022-10-07T02:47:20.300Z,101570.60
2022-10-07T02:52:25.539Z,101562.20
2022-10-07T02:57:34.705Z,101567.40
2022-10-07T03:02:55.015Z,101566.20
2022-10-07T03:08:12.182Z,101564.80
2022-10-07T03:13:15.972Z,101570.00
2022-10-07T03:18:28.762Z,101564.40
2022-10-07T03:23:32.324Z,101570.00
2022-10-07T03:28:39.160Z,101565.20
2022-10-07T03:33:43.448Z,101562.20
2022-10-07T03:38:47.069Z,101568.60
2022-10-07T03:43:50.381Z,101565.40
2022-10-07T03:48:53.977Z,101559.60
2022-10-07T03:53:59.177Z,101551.40
2022-10-07T03:59:03.180Z,101548.40
2022-10-07T04:04:08.031Z,101551.60
2022-10-07T04:09:14.973Z,101541.20
2022-10-07T04:14:18.338Z,101543.60
2022-10-07T04:19:21.857Z,101533.80
2022-10-07T04:24:25.372Z,101529.20
2022-10-07T04:29:28.983Z,101536.60
2022-10-07T04:34:32.412Z,101537.60
2022-10-07T04:39:56.408Z,101536.20
2022-10-07T04:44:59.406Z,101533.40
2022-10-07T04:50:04.360Z,101535.00
2022-10-07T04:55:09.521Z,101540.20
2022-10-07T05:00:13.639Z,101537.80
2022-10-07T05:06:14.352Z,101540.60
2022-10-07T05:11:17.707Z,101534.40
2022-10-07T05:16:21.136Z,101531.60
2022-10-07T05:21:24.533Z,101523.80
2022-10-07T05:26:28.152Z,101526.40
2022-10-07T05:31:31.910Z,101518.00
2022-10-07T05:36:35.854Z,101521.40
2022-10-07T05:41:45.216Z,101521.00
2022-10-07T05:46:49.693Z,101524.80
2022-10-07T05:51:53.003Z,101524.00
2022-10-07T05:56:56.518Z,101525.60
2022-10-07T06:02:00.747Z,101531.60
2022-10-07T06:07:05.705Z,101531.80
2022-10-07T06:12:29.701Z,101531.00
2022-10-07T06:17:33.065Z,101537.20
2022-10-07T06:22:36.321Z,101541.00
2022-10-07T06:27:39.846Z,101551.00
2022-10-07T06:32:43.149Z,101557.00
2022-10-07T06:37:47.279Z,101563.60
2022-10-07T06:42:51.006Z,101564.80
2022-10-07T06:47:54.723Z,101561.80
2022-10-07T06:52:57.951Z,101557.80
2022-10-07T06:58:03.428Z,101568.40
2022-10-07T07:03:10.596Z,101577.60
2022-10-07T07:08:16.057Z,101575.00
2022-10-07T07:13:19.573Z,101579.80
2022-10-07T07:18:24.639Z,101584.40
2022-10-07T07:23:28.655Z,101585.80
2022-10-07T07:28:33.376Z,101587.20
2022-10-07T07:33:38.626Z,101584.80
2022-10-07T07:38:56.852Z,101587.80
2022-10-07T07:44:04.941Z,101578.00
2022-10-07T07:49:13.373Z,101582.20
2022-10-07T07:54:17.503Z,101588.20
2022-10-07T07:59:21.650Z,101587.40
2022-10-07T08:04:25.365Z,101587.20
2022-10-07T08:09:28.794Z,101587.80
2022-10-07T08:14:32.189Z,101589.60
2022-10-07T08:19:35.881Z,101595.40
2022-10-07T08:24:39.119Z,101592.80
2022-10-07T08:29:42.567Z,101588.40
2022-10-07T08:34:45.839Z,101595.80
2022-10-07T08:39:49.257Z,101592.20
2022-10-07T08:44:52.971Z,101603.60
2022-10-07T08:50:35.064Z,101597.60
2022-10-07T08:55:49.155Z,101587.00
2022-10-07T09:01:04.073Z,101582.40
2022-10-07T09:06:19.551Z,101578.80
2022-10-07T09:11:26.226Z,101571.20
2022-10-07T09:16:37.934Z,101562.80
2022-10-07T09:21:51.390Z,101554.60
2022-10-07T09:26:59.947Z,101560.80
2022-10-07T09:32:05.266Z,101555.60
2022-10-07T09:37:30.402Z,101556.20
2022-10-07T09:42:46.008Z,101544.40
2022-10-07T09:47:56.993Z,101542.60
2022-10-07T09:53:02.657Z,101543.60
2022-10-07T09:58:34.332Z,101531.80
2022-10-07T10:03:38.707Z,101534.20
2022-10-07T10:08:45.877Z,101529.80
2022-10-07T10:13:51.879Z,101521.20
2022-10-07T10:19:04.719Z,101518.80
2022-10-07T10:24:15.469Z,101526.60
2022-10-07T10:29:42.639Z,101518.00
2022-10-07T10:35:32.272Z,101515.20
2022-10-07T10:40:51.009Z,101506.40
2022-10-07T10:46:19.056Z,101496.80
2022-10-07T10:52:03.181Z,101494.00
2022-10-07T10:57:51.727Z,101488.80
2022-10-07T11:03:44.830Z,101481.60
2022-10-07T11:08:52.911Z,101466.60
2022-10-07T11:14:06.291Z,101460.80
2022-10-07T11:19:26.418Z,101463.20
2022-10-07T11:24:39.642Z,101448.00
2022-10-07T11:30:22.481Z,101436.80
2022-10-07T11:35:35.018Z,101433.20
2022-10-07T11:41:10.213Z,101423.80
2022-10-07T11:46:39.232Z,101414.00
2022-10-07T11:52:06.272Z,101402.20
2022-10-07T11:57:22.992Z,101391.80
2022-10-07T12:02:29.601Z,101386.40
2022-10-07T12:07:33.486Z,101379.60
2022-10-07T12:12:46.915Z,101370.60
2022-10-07T12:18:23.966Z,101355.60
2022-10-07T12:23:31.213Z,101351.20
2022-10-07T12:28:42.030Z,101345.20
2022-10-07T12:33:57.977Z,101343.00
2022-10-07T12:39:01.215Z,101333.60
2022-10-07T12:44:45.825Z,101324.40
2022-10-07T12:49:54.866Z,101320.40
2022-10-07T12:55:03.011Z,101306.20
2022-10-07T13:00:22.694Z,101292.40
2022-10-07T13:06:04.005Z,101289.00
2022-10-07T13:11:31.678Z,101285.00
2022-10-07T13:16:54.457Z,101273.60
2022-10-07T13:22:14.345Z,101266.60
2022-10-07T13:27:31.212Z,101272.20
2022-10-07T13:32:36.430Z,101263.40
2022-10-07T13:37:46.937Z,101249.60
2022-10-07T13:43:01.386Z,101245.40
2022-10-07T13:48:05.542Z,101236.20
2022-10-07T13:53:22.034Z,101224.40
2022-10-07T13:58:25.617Z,101214.80
2022-10-07T14:03:29.064Z,101201.00
2022-10-07T14:08:32.996Z,101198.20
2022-10-07T14:13:38.107Z,101194.00
2022-10-07T14:18:44.439Z,101183.00
2022-10-07T14:23:47.806Z,101172.20
2022-10-07T14:28:51.282Z,101158.20
2022-10-07T14:34:16.172Z,101157.60
2022-10-07T14:39:31.152Z,101142.20
2022-10-07T14:44:35.389Z,101136.80
2022-10-07T14:49:39.010Z,101132.00
2022-10-07T14:54:42.526Z,101117.80
2022-10-07T14:59:50.045Z,101112.00
2022-10-07T15:04:53.598Z,101102.60
2022-10-07T15:09:57.308Z,101094.40
2022-10-07T15:15:00.590Z,101081.00
2022-10-07T15:20:05.456Z,101077.80
2022-10-07T15:25:11.847Z,101063.20
2022-10-07T15:30:15.640Z,101058.80
2022-10-07T15:35:19.051Z,101052.60
2022-10-07T15:40:22.572Z,101045.80
2022-10-07T15:45:27.108Z,101040.60
2022-10-07T15:50:32.472Z,101030.60
2022-10-07T15:55:35.888Z,101024.40
2022-10-07T16:00:40.264Z,101020.60
2022-10-07T16:05:45.166Z,101014.00
2022-10-07T16:10:48.894Z,101006.40
2022-10-07T16:15:58.664Z,100998.00
2022-10-07T16:21:18.143Z,100992.80
2022-10-07T16:26:27.187Z,100992.00
2022-10-07T16:31:32.924Z,100982.60
2022-10-07T16:36:36.928Z,100975.40
2022-10-07T16:41:44.324Z,100974.80
2022-10-07T16:46:48.710Z,100973.00
2022-10-07T16:51:53.289Z,100972.80
2022-10-07T16:56:57.858Z,100971.20
2022-10-07T17:02:03.423Z,100969.00
2022-10-07T17:07:06.888Z,100958.00
2022-10-07T17:12:10.203Z,100963.20
2022-10-07T17:17:13.611Z,100957.20
2022-10-07T17:22:17.021Z,100949.80
2022-10-07T17:27:20.315Z,100947.80
2022-10-07T17:32:24.446Z,100944.20
2022-10-07T17:37:27.791Z,100932.60
2022-10-07T17:42:31.183Z,100932.00
2022-10-07T17:47:34.514Z,100925.60
2022-10-07T17:52:37.946Z,100923.40
2022-10-07T17:57:41.640Z,100908.00
2022-10-07T18:02:45.063Z,100905.00
2022-10-07T18:07:48.799Z,100901.80
2022-10-07T18:13:11.343Z,100899.80
2022-10-07T18:18:15.895Z,100894.40
2022-10-07T18:23:20.432Z,100882.20
2022-10-07T18:28:24.182Z,100874.40
2022-10-07T18:33:27.880Z,100868.00
2022-10-07T18:38:39.983Z,100862.60
2022-10-07T18:43:45.626Z,100857.40
2022-10-07T18:48:49.268Z,100855.40
2022-10-07T18:53:52.574Z,100845.60
2022-10-07T18:58:55.885Z,100843.40
2022-10-07T19:04:02.546Z,100833.80
2022-10-07T19:09:12.135Z,100833.20
2022-10-07T19:14:16.818Z,100835.60
2022-10-07T19:19:23.879Z,100832.00
2022-10-07T19:24:46.237Z,100820.00
2022-10-07T19:29:51.192Z,100819.20
2022-10-07T19:34:54.598Z,100811.20
2022-10-07T19:39:57.935Z,100807.80
2022-10-07T19:45:01.324Z,100798.00
2022-10-07T19:50:05.250Z,100790.60
2022-10-07T19:55:09.965Z,100790.60
2022-10-07T20:00:14.262Z,100790.80
2022-10-07T20:05:18.486Z,100793.20
2022-10-07T20:10:22.984Z,100792.20
2022-10-07T20:15:26.209Z,100783.00
2022-10-07T20:20:29.551Z,100779.80
2022-10-07T20:25:32.866Z,100766.40
2022-10-07T20:30:36.349Z,100762.40
2022-10-07T20:35:39.972Z,100765.40
2022-10-07T20:41:01.765Z,100760.20
2022-10-07T20:46:05.760Z,100757.40
2022-10-07T20:51:09.155Z,100741.60
2022-10-07T20:56:12.464Z,100741.20
2022-10-07T21:01:15.848Z,100746.20
2022-10-07T21:06:19.395Z,100732.60
2022-10-07T21:11:22.813Z,100724.20
2022-10-07T21:16:30.639Z,100717.40
2022-10-07T21:21:34.346Z,100722.00
2022-10-07T21:26:38.067Z,100716.60
2022-10-07T21:31:42.608Z,100708.80
2022-10-07T21:36:50.281Z,100700.80
2022-10-07T21:41:58.243Z,100698.00
2022-10-07T21:47:01.675Z,100687.20
2022-10-07T21:52:05.325Z,100690.80
2022-10-07T21:57:08.688Z,100683.80
2022-10-07T22:02:12.187Z,100681.00
2022-10-07T22:07:34.356Z,100669.40
2022-10-07T22:12:37.778Z,100670.00
2022-10-07T22:17:41.492Z,100661.60
2022-10-07T22:22:45.041Z,100655.80
2022-10-07T22:27:51.905Z,100646.40
2022-10-07T22:32:55.113Z,100643.20
2022-10-07T22:37:59.351Z,100631.60
2022-10-07T22:43:02.958Z,100622.80
2022-10-07T22:48:06.737Z,100620.80
2022-10-07T22:53:09.999Z,100614.40
2022-10-07T22:58:13.829Z,100613.20
2022-10-07T23:03:17.228Z,100604.60
2022-10-07T23:08:20.957Z,100595.80
2022-10-07T23:13:27.339Z,100592.00
2022-10-07T23:18:31.651Z,100580.60
2022-10-07T23:23:37.777Z,100581.00
2022-10-07T23:28:42.061Z,100579.40
2022-10-07T23:33:47.774Z,100566.80
2022-10-07T23:38:52.605Z,100569.80
2022-10-07T23:43:59.739Z,100559.00
2022-10-07T23:49:04.652Z,100548.00
2022-10-07T23:54:08.072Z,100541.40
2022-10-07T23:59:12.195Z,100546.00
